Time;durP1;ratioP1;P1;durP2;ratioP2;P2;SDS_P1;SDS_P2;PMS_P1;PMS_P2;Temp;Humidity;BMP_temperature;BMP_pressure;BME280_temperature;BME280_humidity;BME280_pressure;Samples;Min_cycle;Max_cycle;Signal;HPM_P1;HPM_P2
2023/10/10 00:02:20;;;;;;;23.10;8.13;;;19.60;99.90;;;;;;5042337;28;20234;-75
2023/10/10 00:04:54;;;;;;;19.17;8.52;;;19.70;99.90;;;;;;5043620;28;20017;-75
2023/10/10 00:07:24;;;;;;;22.52;8.20;;;19.70;99.90;;;;;;5042497;28;20021;-75
2023/10/10 00:09:50;;;;;;;25.80;9.27;;;19.70;99.90;;;;;;5043400;28;20021;-75
2023/10/10 00:12:26;;;;;;;23.83;8.73;;;19.70;99.90;;;;;;5040677;28;20399;-75
2023/10/10 00:14:53;;;;;;;21.80;8.95;;;19.70;99.90;;;;;;5036914;28;20030;-75
2023/10/10 00:17:20;;;;;;;28.45;9.63;;;19.70;99.90;;;;;;5041814;28;20025;-75
2023/10/10 00:19:52;;;;;;;24.88;9.18;;;19.70;99.90;;;;;;5039790;28;20547;-75
2023/10/10 00:22:26;;;;;;;28.45;9.38;;;19.70;1.00;;;;;;5037590;28;20048;-75
2023/10/10 00:24:52;;;;;;;22.80;9.38;;;19.60;1.00;;;;;;5040068;28;20053;-75
2023/10/10 00:27:18;;;;;;;27.80;9.32;;;19.50;1.00;;;;;;5043179;28;20021;-75
2023/10/10 00:29:46;;;;;;;19.40;8.30;;;19.50;1.00;;;;;;5040370;28;20438;-75
2023/10/10 00:32:22;;;;;;;19.10;8.43;;;19.60;1.00;;;;;;5042855;28;20074;-75
2023/10/10 00:34:49;;;;;;;23.08;8.32;;;19.50;1.00;;;;;;5040609;28;20065;-75
2023/10/10 00:37:17;;;;;;;22.25;8.63;;;19.50;1.00;;;;;;5043813;28;20040;-75
2023/10/10 00:39:52;;;;;;;24.42;8.70;;;19.40;1.00;;;;;;5039804;28;20502;-74
2023/10/10 00:42:36;;;;;;;22.33;9.45;;;19.40;1.00;;;;;;5041634;28;20364;-75
2023/10/10 00:45:04;;;;;;;26.92;9.25;;;19.30;1.00;;;;;;5038870;28;20120;-75
2023/10/10 00:47:38;;;;;;;27.58;10.15;;;19.20;1.00;;;;;;5040921;28;20021;-75
2023/10/10 00:50:13;;;;;;;26.70;9.10;;;19.20;1.00;;;;;;5036068;28;20486;-75
2023/10/10 00:52:41;;;;;;;22.65;10.23;;;19.10;1.00;;;;;;5039709;28;20123;-75
2023/10/10 00:55:09;;;;;;;29.95;10.82;;;19.10;1.00;;;;;;5042351;28;20104;-75
2023/10/10 00:57:37;;;;;;;30.58;9.95;;;19.00;1.00;;;;;;5039501;28;20049;-75
2023/10/10 01:00:09;;;;;;;28.17;10.35;;;19.00;1.00;;;;;;5041966;28;20025;-75
2023/10/10 01:02:37;;;;;;;19.50;9.67;;;19.00;1.00;;;;;;5029533;28;20040;-75
2023/10/10 01:05:12;;;;;;;28.20;10.45;;;19.00;1.00;;;;;;5043381;28;20266;-75
2023/10/10 01:07:38;;;;;;;24.00;10.45;;;19.10;1.00;;;;;;5036876;28;20032;-75
2023/10/10 01:10:12;;;;;;;23.45;10.48;;;19.10;1.00;;;;;;5039734;28;20197;-75
2023/10/10 01:12:40;;;;;;;31.80;10.32;;;19.10;1.00;;;;;;5042770;28;20033;-75
2023/10/10 01:15:26;;;;;;;25.42;9.32;;;19.10;1.00;;;;;;5040224;28;20075;-75
2023/10/10 01:17:54;;;;;;;24.38;10.27;;;19.10;1.00;;;;;;5035678;28;20018;-75
2023/10/10 01:20:33;;;;;;;26.40;10.88;;;19.10;1.00;;;;;;5041706;28;20013;-75
2023/10/10 01:23:02;;;;;;;23.20;11.48;;;19.00;1.00;;;;;;5045679;28;20083;-75
2023/10/10 01:27:57;;;;;;;23.17;10.63;;;19.00;1.00;;;;;;5043066;28;20293;-75
2023/10/10 01:33:14;;;;;;;22.52;11.02;;;19.00;1.00;;;;;;5045824;28;20031;-75
2023/10/10 01:35:43;;;;;;;22.13;9.90;;;19.00;1.00;;;;;;5043164;28;20039;-75
2023/10/10 01:38:55;;;;;;;26.90;10.77;;;19.00;1.00;;;;;;5039756;28;20025;-75
2023/10/10 01:41:40;;;;;;;26.13;11.52;;;19.00;1.00;;;;;;5045786;28;20027;-75
2023/10/10 01:44:23;;;;;;;22.02;10.73;;;19.00;1.00;;;;;;5044383;28;20021;-75
2023/10/10 01:46:53;;;;;;;25.15;10.52;;;19.00;1.00;;;;;;5042810;28;20028;-75
2023/10/10 01:49:25;;;;;;;22.63;10.38;;;19.00;1.00;;;;;;5043033;28;20494;-75
2023/10/10 01:51:55;;;;;;;;;;;19.00;1.00;;;;;;5040310;28;20028;-75
2023/10/10 01:54:22;;;;;;;24.27;10.20;;;19.00;1.00;;;;;;5044633;28;20381;-75
2023/10/10 01:56:48;;;;;;;19.92;10.43;;;18.90;1.00;;;;;;5044981;28;20033;-75
2023/10/10 01:59:19;;;;;;;18.73;10.73;;;18.80;1.00;;;;;;5041489;28;20594;-75
2023/10/10 02:01:47;;;;;;;27.05;11.45;;;18.70;1.00;;;;;;5039566;28;20163;-75
2023/10/10 02:04:14;;;;;;;27.63;11.55;;;18.70;1.00;;;;;;5044992;28;20090;-75
2023/10/10 02:06:40;;;;;;;30.77;13.82;;;18.50;1.00;;;;;;5044717;28;20367;-75
2023/10/10 02:09:18;;;;;;;39.97;16.63;;;18.40;1.00;;;;;;5043207;28;20025;-75
2023/10/10 02:11:50;;;;;;;34.10;16.48;;;18.40;5.50;;;;;;5042195;28;20030;-75
2023/10/10 02:14:19;;;;;;;;;;;18.30;9.00;;;;;;5043609;28;20051;-75
2023/10/10 02:16:48;;;;;;;30.05;13.95;;;18.30;12.90;;;;;;5045822;28;19996;-75
2023/10/10 02:19:24;;;;;;;26.13;13.93;;;18.30;5.70;;;;;;5042911;28;20048;-75
2023/10/10 02:22:01;;;;;;;24.45;13.38;;;18.30;1.00;;;;;;5041916;28;20091;-75
2023/10/10 02:26:55;;;;;;;23.40;10.55;;;18.20;1.00;;;;;;5043485;28;20503;-75
2023/10/10 02:32:08;;;;;;;22.33;10.52;;;18.30;1.00;;;;;;5041759;28;20466;-75
2023/10/10 02:34:37;;;;;;;25.10;10.15;;;18.20;1.00;;;;;;5043303;28;20075;-75
2023/10/10 02:37:46;;;;;;;27.30;10.38;;;18.30;1.00;;;;;;5038342;28;20502;-75
2023/10/10 02:40:06;;;;;;;27.38;9.25;;;18.30;1.00;;;;;;5040123;28;20029;-75
2023/10/10 02:42:33;;;;;;;26.17;9.95;;;18.30;1.00;;;;;;5042941;28;20074;-75
2023/10/10 02:45:02;;;;;;;31.10;10.40;;;18.30;1.00;;;;;;5040436;28;20051;-75
2023/10/10 02:47:32;;;;;;;19.30;8.90;;;18.40;1.00;;;;;;5038909;28;20032;-75
2023/10/10 02:50:12;;;;;;;21.92;9.95;;;18.40;1.00;;;;;;5043064;28;20017;-75
2023/10/10 02:52:45;;;;;;;27.50;9.55;;;18.40;1.00;;;;;;5038463;28;20116;-75
2023/10/10 02:55:16;;;;;;;28.45;10.35;;;18.40;1.00;;;;;;5043102;28;20368;-75
2023/10/10 02:57:42;;;;;;;20.65;10.30;;;18.30;1.00;;;;;;5038023;28;20484;-75
2023/10/10 03:02:55;;;;;;;23.70;9.27;;;18.20;1.00;;;;;;5043941;28;20021;-75
2023/10/10 03:05:38;;;;;;;;;;;18.30;1.00;;;;;;5034449;28;20030;-75
2023/10/10 03:08:12;;;;;;;25.30;10.00;;;18.20;1.00;;;;;;5040253;28;19947;-75
2023/10/10 03:10:46;;;;;;;20.70;9.20;;;18.20;1.00;;;;;;5039694;28;20025;-75
2023/10/10 03:13:16;;;;;;;22.17;9.25;;;18.20;1.00;;;;;;5041794;28;20030;-75
2023/10/10 03:15:50;;;;;;;23.92;10.82;;;18.30;1.00;;;;;;5037531;28;20029;-75
2023/10/10 03:18:18;;;;;;;25.02;10.05;;;18.30;1.00;;;;;;5042607;28;20104;-75
2023/10/10 03:21:05;;;;;;;22.40;9.93;;;18.30;1.00;;;;;;5043677;28;20032;-75
2023/10/10 03:23:35;;;;;;;21.88;9.30;;;18.30;1.00;;;;;;5042307;28;20025;-75
2023/10/10 03:26:04;;;;;;;23.88;10.48;;;18.30;1.00;;;;;;5040866;28;20067;-75
2023/10/10 03:28:41;;;;;;;26.50;10.02;;;18.30;1.00;;;;;;5043509;28;20475;-75
2023/10/10 05:24:55;;;;;;;29.27;14.52;;;17.80;1.00;;;;;;5039079;28;20037;-75
2023/10/10 05:27:29;;;;;;;28.00;14.38;;;17.90;1.00;;;;;;5044527;28;20021;-76
2023/10/10 05:29:55;;;;;;;27.65;13.95;;;17.80;1.00;;;;;;5042147;28;20434;-75
2023/10/10 05:32:22;;;;;;;25.80;14.32;;;17.80;1.00;;;;;;5046423;28;20154;-75
2023/10/10 05:34:49;;;;;;;30.00;14.93;;;17.80;1.00;;;;;;5045008;28;20112;-75
2023/10/10 05:37:15;;;;;;;30.42;14.60;;;17.80;1.00;;;;;;5046355;28;20036;-75
2023/10/10 05:39:41;;;;;;;31.45;14.10;;;17.80;1.00;;;;;;5047095;28;20021;-75
2023/10/10 05:42:08;;;;;;;31.25;14.10;;;17.80;1.00;;;;;;5043703;28;20388;-75
2023/10/10 05:44:38;;;;;;;30.08;14.90;;;17.80;1.00;;;;;;5044958;28;20017;-75
2023/10/10 05:47:06;;;;;;;30.17;15.75;;;17.80;1.00;;;;;;5046524;28;20029;-75
2023/10/10 05:49:32;;;;;;;51.95;16.65;;;17.80;1.00;;;;;;5043508;28;20027;-75
2023/10/10 05:51:58;;;;;;;33.85;17.30;;;17.80;1.00;;;;;;5043424;28;20029;-75
2023/10/10 05:54:24;;;;;;;39.60;16.50;;;17.90;1.00;;;;;;5045873;28;20122;-75
2023/10/10 05:56:50;;;;;;;27.55;14.82;;;17.90;1.00;;;;;;5046343;28;20264;-75
2023/10/10 05:59:16;;;;;;;31.80;16.05;;;17.80;1.00;;;;;;5042740;28;20049;-75
2023/10/10 06:01:41;;;;;;;38.53;16.98;;;17.80;1.00;;;;;;5044967;28;20025;-75
2023/10/10 06:04:08;;;;;;;30.00;16.63;;;17.80;1.00;;;;;;5047502;28;20055;-75
2023/10/10 06:06:33;;;;;;;33.45;16.00;;;17.90;1.00;;;;;;5043449;28;20021;-75
2023/10/10 06:09:04;;;;;;;31.27;14.90;;;17.90;1.00;;;;;;5044526;28;20340;-75
2023/10/10 06:11:34;;;;;;;31.20;17.15;;;17.90;1.00;;;;;;5038322;28;20384;-75
2023/10/10 06:14:00;;;;;;;33.75;16.75;;;17.90;1.00;;;;;;5042806;28;20482;-75
2023/10/10 06:16:25;;;;;;;30.73;17.27;;;17.90;1.00;;;;;;5043944;28;20116;-75
2023/10/10 06:18:51;;;;;;;39.72;17.40;;;18.00;1.00;;;;;;5042850;28;20454;-75
2023/10/10 06:21:18;;;;;;;36.78;17.20;;;18.00;1.00;;;;;;5044976;28;20035;-75
2023/10/10 06:23:44;;;;;;;32.55;17.98;;;18.00;1.00;;;;;;5042214;28;20021;-75
2023/10/10 06:26:12;;;;;;;30.60;16.65;;;18.00;1.00;;;;;;5044989;28;20026;-74
2023/10/10 06:28:53;;;;;;;30.45;17.00;;;18.10;1.00;;;;;;5043501;28;20021;-75
2023/10/10 06:31:19;;;;;;;28.88;16.42;;;18.10;1.00;;;;;;5038568;28;20021;-75
2023/10/10 06:33:49;;;;;;;31.67;16.58;;;18.10;1.00;;;;;;5044015;28;20529;-75
2023/10/10 06:41:37;;;;;;;39.72;17.75;;;18.20;1.00;;;;;;5044485;28;20403;-75
2023/10/10 06:44:17;;;;;;;36.35;18.20;;;18.20;1.00;;;;;;5038528;28;20476;-75
2023/10/10 06:46:48;;;;;;;33.10;17.95;;;18.20;1.00;;;;;;5042196;28;20180;-75
2023/10/10 06:49:13;;;;;;;34.35;17.70;;;18.30;1.00;;;;;;5038418;28;20021;-75
2023/10/10 06:51:40;;;;;;;35.92;18.42;;;18.30;1.00;;;;;;5043942;28;20082;-75
2023/10/10 06:57:17;;;;;;;32.67;18.17;;;18.40;4.00;;;;;;5041147;28;20040;-75
2023/10/10 06:59:42;;;;;;;38.13;18.77;;;18.40;4.00;;;;;;5040120;28;20025;-76
2023/10/10 07:02:21;;;;;;;37.55;19.38;;;18.50;1.60;;;;;;5035502;28;20033;-75
2023/10/10 07:04:52;;;;;;;33.35;19.58;;;18.40;8.40;;;;;;5039574;28;20528;-75
2023/10/10 07:07:20;;;;;;;35.87;21.53;;;18.50;16.60;;;;;;5041555;28;20021;-75
2023/10/10 07:09:46;;;;;;;38.60;20.40;;;18.50;22.00;;;;;;5040547;28;20052;-75
2023/10/10 07:12:13;;;;;;;39.53;20.65;;;18.50;25.10;;;;;;5043752;28;20025;-75
2023/10/10 07:14:40;;;;;;;41.47;21.33;;;18.70;22.50;;;;;;5035617;28;20479;-75
2023/10/10 07:17:15;;;;;;;37.97;20.08;;;18.60;18.60;;;;;;5040253;28;20029;-75
2023/10/10 07:22:33;;;;;;;41.78;21.35;;;18.70;27.00;;;;;;5038489;28;20037;-75
2023/10/10 07:25:09;;;;;;;47.95;22.92;;;18.80;29.80;;;;;;5042973;28;20078;-75
2023/10/10 07:27:43;;;;;;;43.08;20.63;;;18.90;31.60;;;;;;5042823;28;20615;-75
2023/10/10 07:30:19;;;;;;;41.22;21.50;;;19.00;41.50;;;;;;5040885;28;20022;-75
2023/10/10 07:32:48;;;;;;;42.05;21.92;;;19.00;45.80;;;;;;5044402;28;20498;-75
2023/10/10 07:35:15;;;;;;;44.72;23.88;;;19.10;46.10;;;;;;5044600;28;20032;-75
2023/10/10 07:37:43;;;;;;;42.13;22.88;;;19.10;49.30;;;;;;5040736;28;20025;-75
2023/10/10 07:42:59;;;;;;;47.95;23.13;;;19.20;53.60;;;;;;5042905;28;20036;-75
2023/10/10 07:45:43;;;;;;;50.17;24.20;;;19.30;51.60;;;;;;5037609;28;20021;-75
2023/10/10 07:50:36;;;;;;;45.53;23.77;;;19.40;61.80;;;;;;5042812;28;20029;-75
2023/10/10 07:53:06;;;;;;;47.92;24.33;;;19.50;57.30;;;;;;5042315;28;20021;-75
2023/10/10 07:58:23;;;;;;;51.28;28.67;;;19.60;78.50;;;;;;5042909;28;20052;-75
2023/10/10 08:00:51;;;;;;;55.63;31.02;;;19.70;91.70;;;;;;5040167;28;20033;-75
2023/10/10 08:03:20;;;;;;;48.53;29.00;;;19.70;92.30;;;;;;5042563;28;20025;-75
2023/10/10 08:05:50;;;;;;;77.15;37.20;;;19.80;90.00;;;;;;5042039;28;20108;-75
2023/10/10 08:08:19;;;;;;;68.97;37.88;;;19.80;99.90;;;;;;5039243;28;20021;-75
2023/10/10 08:10:49;;;;;;;66.85;41.22;;;20.00;99.90;;;;;;5068298;28;20036;-75
2023/10/10 08:13:15;;;;;;;64.80;38.03;;;20.00;99.90;;;;;;5040052;28;20032;-75
2023/10/10 08:18:52;;;;;;;69.07;39.20;;;20.20;99.90;;;;;;5037750;28;20104;-75
2023/10/10 08:21:22;;;;;;;68.95;40.33;;;20.30;99.90;;;;;;5039211;28;20022;-75
2023/10/10 08:23:56;;;;;;;68.30;38.72;;;20.30;99.90;;;;;;5040373;28;20476;-75
2023/10/10 08:26:26;;;;;;;63.65;39.35;;;20.30;99.90;;;;;;5035634;28;20037;-76
2023/10/10 08:28:52;;;;;;;70.28;40.28;;;20.40;99.90;;;;;;5041474;28;20064;-75
2023/10/10 08:31:19;;;;;;;67.35;39.75;;;20.50;99.90;;;;;;5038211;28;20025;-75
2023/10/10 08:33:46;;;;;;;71.20;39.63;;;20.60;99.90;;;;;;5043238;28;20021;-75
2023/10/10 08:36:24;;;;;;;63.80;38.92;;;20.60;99.90;;;;;;5036079;28;20026;-75
2023/10/10 08:38:51;;;;;;;77.20;42.30;;;20.60;99.90;;;;;;5040633;28;20108;-75
2023/10/10 08:41:25;;;;;;;66.28;40.75;;;20.60;99.90;;;;;;5042900;28;20033;-75
2023/10/10 08:44:06;;;;;;;66.28;39.10;;;20.70;99.90;;;;;;5037941;28;20028;-76
2023/10/10 08:46:40;;;;;;;57.97;37.65;;;20.80;99.90;;;;;;5038278;28;20048;-76
2023/10/10 08:49:06;;;;;;;72.50;39.08;;;20.80;97.90;;;;;;5041288;28;21027;-75
2023/10/10 08:51:34;;;;;;;62.70;36.75;;;20.90;96.90;;;;;;5041762;28;20029;-75
2023/10/10 08:54:12;;;;;;;58.45;35.80;;;20.90;82.80;;;;;;5034825;28;20032;-76
2023/10/10 08:56:40;;;;;;;59.20;34.63;;;20.90;89.40;;;;;;5036595;28;20034;-75
2023/10/10 08:59:11;;;;;;;54.30;32.97;;;21.00;90.40;;;;;;5042077;28;20453;-75
2023/10/10 09:01:38;;;;;;;63.33;35.23;;;21.00;92.20;;;;;;5038283;28;20120;-76
2023/10/10 09:04:17;;;;;;;60.50;35.38;;;21.00;91.80;;;;;;5043392;28;20729;-75
2023/10/10 09:06:58;;;;;;;62.38;34.15;;;21.00;88.80;;;;;;5039562;28;20365;-75
2023/10/10 09:09:43;;;;;;;59.47;32.20;;;21.00;79.50;;;;;;5039387;28;20022;-76
2023/10/10 09:12:14;;;;;;;54.47;31.13;;;21.10;78.20;;;;;;5036336;28;20032;-75
2023/10/10 09:14:50;;;;;;;53.05;28.67;;;21.10;69.00;;;;;;5042107;28;20438;-75
2023/10/10 09:17:34;;;;;;;56.20;29.85;;;21.20;33.20;;;;;;5036997;28;20021;-75
2023/10/10 09:20:22;;;;;;;57.78;31.65;;;21.20;39.60;;;;;;5039204;28;20033;-76
2023/10/10 09:22:51;;;;;;;54.13;31.30;;;21.30;27.50;;;;;;5039298;28;20030;-75
2023/10/10 09:25:31;;;;;;;60.15;30.15;;;21.30;34.40;;;;;;5041948;28;20021;-75
2023/10/10 09:28:04;;;;;;;51.22;30.85;;;21.30;29.60;;;;;;5042751;28;20009;-75
2023/10/10 09:30:38;;;;;;;56.10;30.33;;;21.30;22.60;;;;;;5037558;28;20079;-75
2023/10/10 09:33:27;;;;;;;51.88;28.10;;;21.20;26.70;;;;;;5041822;28;20021;-75
2023/10/10 09:35:59;;;;;;;45.70;27.98;;;21.30;52.00;;;;;;5040357;28;20078;-75
2023/10/10 09:38:34;;;;;;;49.88;29.98;;;21.40;50.30;;;;;;5035668;28;20361;-75
2023/10/10 09:41:10;;;;;;;56.70;29.83;;;21.40;53.20;;;;;;5043072;28;20025;-75
2023/10/10 09:44:01;;;;;;;53.13;28.77;;;21.50;37.30;;;;;;5038212;28;20022;-75
2023/10/10 09:46:36;;;;;;;50.90;28.77;;;21.50;51.20;;;;;;5039912;28;20029;-75
2023/10/10 09:52:49;;;;;;;51.70;29.58;;;21.50;41.10;;;;;;5042603;28;20028;-75
2023/10/10 09:54:25;;;;;;;50.10;29.83;;;21.50;35.30;;;;;;5044328;28;20029;-75
2023/10/10 09:56:53;;;;;;;52.72;31.10;;;21.60;47.30;;;;;;5040265;28;20026;-76
2023/10/10 09:59:20;;;;;;;55.58;29.55;;;21.60;49.40;;;;;;5042836;28;20045;-75
2023/10/10 10:01:47;;;;;;;54.22;31.60;;;21.70;37.50;;;;;;5041026;28;20033;-75
2023/10/10 10:04:25;;;;;;;53.45;30.08;;;21.70;19.70;;;;;;5048736;28;20143;-75
2023/10/10 10:07:12;;;;;;;57.60;30.90;;;21.90;8.60;;;;;;5041539;28;20075;-75
2023/10/10 10:10:09;;;;;;;50.85;29.27;;;21.90;6.80;;;;;;5024431;28;20022;-75
2023/10/10 10:13:09;;;;;;;51.10;30.45;;;21.90;22.70;;;;;;5040141;28;20025;-75
2023/10/10 10:16:19;;;;;;;53.45;31.15;;;21.90;17.40;;;;;;5037894;28;20063;-75
2023/10/10 10:18:47;;;;;;;57.80;31.48;;;22.00;32.10;;;;;;5043570;28;20515;-75
2023/10/10 10:21:32;;;;;;;56.28;32.47;;;22.10;7.80;;;;;;5042110;28;20029;-75
2023/10/10 10:24:16;;;;;;;48.60;29.33;;;22.10;1.10;;;;;;5043671;28;20024;-75
2023/10/10 10:26:43;;;;;;;54.72;30.38;;;22.10;1.00;;;;;;5042291;28;20122;-75
2023/10/10 10:29:15;;;;;;;55.03;31.02;;;22.20;4.30;;;;;;5042665;28;20014;-75
2023/10/10 10:32:07;;;;;;;57.28;29.08;;;22.20;16.50;;;;;;5038734;28;20037;-76
2023/10/10 10:34:32;;;;;;;52.70;30.52;;;22.20;18.80;;;;;;5039033;28;20495;-75
2023/10/10 10:37:13;;;;;;;58.30;31.52;;;22.20;16.30;;;;;;5042957;28;20116;-75
2023/10/10 10:40:09;;;;;;;63.55;30.20;;;22.20;1.00;;;;;;5045385;28;20021;-75
2023/10/10 10:42:27;;;;;;;57.20;29.90;;;22.30;1.00;;;;;;5044952;28;20368;-75
2023/10/10 10:47:45;;;;;;;53.95;31.80;;;22.40;1.00;;;;;;5039334;28;20069;-75
2023/10/10 10:50:40;;;;;;;54.30;28.60;;;22.40;1.00;;;;;;5042049;28;20479;-75
2023/10/10 10:53:20;;;;;;;57.95;29.88;;;22.50;1.00;;;;;;5041567;28;20017;-75
2023/10/10 10:56:37;;;;;;;52.80;29.05;;;22.60;1.00;;;;;;5038092;28;20040;-75
2023/10/10 10:58:56;;;;;;;48.15;28.20;;;22.70;1.00;;;;;;5037911;28;20041;-75
2023/10/10 11:01:29;;;;;;;43.08;26.75;;;22.80;1.00;;;;;;5037834;28;20392;-75
2023/10/10 11:03:55;;;;;;;51.90;29.25;;;22.90;1.00;;;;;;5044076;28;20032;-76
2023/10/10 11:06:24;;;;;;;49.72;27.42;;;23.00;1.00;;;;;;5042344;28;20021;-75
2023/10/10 11:08:52;;;;;;;55.03;31.23;;;23.00;1.00;;;;;;5044728;28;20024;-75
2023/10/10 11:14:03;;;;;;;56.75;30.90;;;23.10;1.00;;;;;;5041620;28;20064;-75
2023/10/10 11:16:39;;;;;;;55.92;30.45;;;23.20;1.00;;;;;;5035099;28;20030;-75
2023/10/10 11:19:19;;;;;;;48.50;30.25;;;23.30;1.00;;;;;;5040887;28;20496;-75
2023/10/10 11:21:53;;;;;;;46.45;27.50;;;23.30;1.00;;;;;;5039299;28;20053;-75
2023/10/10 11:24:24;;;;;;;58.47;30.63;;;23.30;1.00;;;;;;5041586;28;20022;-75
2023/10/10 11:32:46;;;;;;;49.60;29.25;;;23.50;1.00;;;;;;5040224;28;20052;-76
2023/10/10 11:35:22;;;;;;;58.60;31.70;;;23.30;1.00;;;;;;5044599;28;20021;-76
2023/10/10 11:37:59;;;;;;;54.60;28.83;;;23.30;1.00;;;;;;5039705;28;20502;-75
2023/10/10 11:43:06;;;;;;;47.63;29.55;;;23.30;1.00;;;;;;5041242;28;20029;-75
2023/10/10 11:45:39;;;;;;;71.15;32.75;;;23.40;1.00;;;;;;5041121;28;20483;-75
2023/10/10 11:48:12;;;;;;;77.65;33.03;;;23.60;1.00;;;;;;5038013;28;20353;-75
2023/10/10 11:50:47;;;;;;;64.18;33.42;;;23.70;1.00;;;;;;5041668;28;20018;-75
2023/10/10 11:53:19;;;;;;;57.25;31.77;;;23.70;1.00;;;;;;5037294;28;20018;-76
2023/10/10 11:55:44;;;;;;;59.50;31.95;;;23.90;1.00;;;;;;5042417;28;20028;-75
2023/10/10 11:58:19;;;;;;;49.45;30.48;;;24.00;1.00;;;;;;5042834;28;20049;-76
2023/10/10 12:00:59;;;;;;;61.97;31.38;;;24.00;1.00;;;;;;5037172;28;20112;-75
2023/10/10 12:06:03;;;;;;;55.30;32.33;;;24.00;1.00;;;;;;5038695;28;20549;-76
2023/10/10 12:08:29;;;;;;;76.88;35.30;;;24.10;1.00;;;;;;5041939;28;20024;-75
2023/10/10 12:11:12;;;;;;;232.60;56.35;;;24.20;1.00;;;;;;5043687;28;20395;-76
2023/10/10 12:13:38;;;;;;;84.85;37.33;;;24.40;1.00;;;;;;5039379;28;20018;-76
2023/10/10 12:16:10;;;;;;;69.60;34.63;;;24.30;1.00;;;;;;5041561;28;20391;-76
2023/10/10 12:18:43;;;;;;;55.03;33.25;;;24.40;1.00;;;;;;5043522;28;20021;-76
2023/10/10 12:21:10;;;;;;;73.80;33.45;;;24.40;99.90;;;;;;5041329;28;20029;-76
2023/10/10 12:23:36;;;;;;;55.05;32.53;;;24.40;99.90;;;;;;5041533;28;20483;-75
2023/10/10 12:26:04;;;;;;;60.58;31.63;;;24.50;99.90;;;;;;5042983;28;20070;-75
2023/10/10 12:28:30;;;;;;;63.97;33.17;;;24.60;99.90;;;;;;5040280;28;20029;-75
2023/10/10 12:30:56;;;;;;;66.80;33.97;;;24.60;99.90;;;;;;5042900;28;20028;-76
2023/10/10 12:33:23;;;;;;;63.90;35.25;;;24.80;99.90;;;;;;5040873;28;20025;-76
2023/10/10 12:35:49;;;;;;;57.85;33.00;;;24.70;99.90;;;;;;5041393;28;20013;-76
2023/10/10 12:38:20;;;;;;;65.80;34.67;;;24.70;99.90;;;;;;5042711;28;20040;-76
2023/10/10 12:40:51;;;;;;;61.20;31.70;;;24.80;99.90;;;;;;5039632;28;20017;-76
2023/10/10 12:43:17;;;;;;;57.85;30.55;;;24.80;99.90;;;;;;5042289;28;20075;-76
2023/10/10 12:45:45;;;;;;;55.58;30.63;;;24.90;99.90;;;;;;5041529;28;20025;-76
2023/10/10 12:48:14;;;;;;;67.43;31.60;;;24.90;99.90;;;;;;5040621;28;20028;-76
2023/10/10 12:50:44;;;;;;;60.38;33.63;;;24.90;99.90;;;;;;5041712;28;20048;-76
2023/10/10 12:53:15;;;;;;;51.67;31.67;;;24.90;99.90;;;;;;5038839;28;20020;-75
2023/10/10 12:55:51;;;;;;;57.35;31.52;;;24.90;99.90;;;;;;5039152;28;20422;-76
2023/10/10 12:58:27;;;;;;;60.90;30.42;;;24.90;99.90;;;;;;5036751;28;20037;-75
2023/10/10 13:00:53;;;;;;;54.83;30.73;;;24.90;99.90;;;;;;5040668;28;20021;-75
2023/10/10 13:03:32;;;;;;;68.72;34.28;;;24.80;99.90;;;;;;5039235;28;20026;-76
2023/10/10 13:06:00;;;;;;;69.63;33.67;;;24.80;99.90;;;;;;5039071;28;20029;-75
2023/10/10 13:08:39;;;;;;;67.78;32.97;;;24.70;99.90;;;;;;5039319;28;20144;-75
2023/10/10 13:11:20;;;;;;;58.92;33.20;;;24.60;99.90;;;;;;5055452;28;20040;-75
2023/10/10 13:13:49;;;;;;;54.88;32.15;;;24.60;99.90;;;;;;5042953;28;20416;-75
2023/10/10 13:16:24;;;;;;;69.05;33.72;;;24.60;99.90;;;;;;5039165;28;20152;-75
2023/10/10 13:18:59;;;;;;;59.33;31.48;;;24.50;99.90;;;;;;5044937;28;20087;-75
2023/10/10 13:21:26;;;;;;;72.47;33.75;;;24.40;99.90;;;;;;5043590;28;20025;-75
2023/10/10 13:23:53;;;;;;;64.90;35.30;;;24.40;99.90;;;;;;5043574;28;20022;-76
2023/10/10 13:26:22;;;;;;;71.10;37.05;;;24.50;99.90;;;;;;5042793;28;20060;-75
2023/10/10 13:28:48;;;;;;;64.57;34.05;;;24.50;99.90;;;;;;5046450;28;20092;-76
2023/10/10 13:31:18;;;;;;;64.07;32.72;;;24.40;99.90;;;;;;5040167;28;20064;-75
2023/10/10 13:33:44;;;;;;;73.95;32.97;;;24.40;99.90;;;;;;5043567;28;20499;-75
2023/10/10 13:36:12;;;;;;;57.90;31.67;;;24.30;99.90;;;;;;5041702;28;20483;-76
2023/10/10 13:38:53;;;;;;;62.15;31.50;;;24.30;99.90;;;;;;5040451;28;20029;-75
2023/10/10 13:41:20;;;;;;;67.40;33.15;;;24.30;1.00;;;;;;5042229;28;20025;-76
2023/10/10 13:43:47;;;;;;;73.68;34.28;;;24.20;1.00;;;;;;5042544;28;20479;-75
2023/10/10 13:46:14;;;;;;;69.47;33.15;;;24.20;99.90;;;;;;5044730;28;20029;-75
2023/10/10 13:48:40;;;;;;;66.85;35.30;;;24.10;1.00;;;;;;5039217;28;20022;-75
2023/10/10 13:51:09;;;;;;;75.40;36.92;;;24.10;1.00;;;;;;5045313;28;20513;-75
2023/10/10 13:53:36;;;;;;;66.35;34.72;;;24.00;1.00;;;;;;5044437;28;20149;-75
2023/10/10 13:56:05;;;;;;;68.63;36.10;;;24.00;1.00;;;;;;5043694;28;20032;-75
2023/10/10 13:58:31;;;;;;;66.78;35.00;;;24.00;1.00;;;;;;5045994;28;20151;-75
2023/10/10 14:03:36;;;;;;;64.05;37.65;;;23.90;1.00;;;;;;5045140;28;20033;-75
2023/10/10 14:06:03;;;;;;;67.97;35.58;;;23.90;1.00;;;;;;5045985;28;20378;-75
2023/10/10 14:08:30;;;;;;;66.47;36.25;;;23.80;1.00;;;;;;5045575;28;20013;-75
2023/10/10 14:10:59;;;;;;;69.05;37.55;;;23.80;1.00;;;;;;5043369;28;20025;-75
2023/10/10 14:13:28;;;;;;;59.22;35.80;;;23.80;1.00;;;;;;5043732;28;20079;-75
2023/10/10 14:15:56;;;;;;;58.63;35.80;;;23.80;1.00;;;;;;5045707;28;20040;-75
2023/10/10 14:18:28;;;;;;;65.22;37.22;;;23.80;1.00;;;;;;5036740;28;20052;-76
2023/10/10 14:20:54;;;;;;;69.85;35.83;;;23.80;1.00;;;;;;5043521;28;20037;-76
2023/10/10 14:23:25;;;;;;;71.22;38.17;;;23.80;1.00;;;;;;5043244;28;20030;-75
2023/10/10 14:28:39;;;;;;;59.83;36.50;;;23.70;1.00;;;;;;5045454;28;20053;-75
2023/10/10 14:31:05;;;;;;;68.35;37.22;;;23.70;1.00;;;;;;5042069;28;20025;-75
2023/10/10 14:33:30;;;;;;;74.90;37.72;;;23.70;1.00;;;;;;5043555;28;20490;-75
2023/10/10 14:35:56;;;;;;;66.80;37.35;;;23.70;1.00;;;;;;5043112;28;20048;-75
2023/10/10 14:38:22;;;;;;;68.45;38.15;;;23.60;1.00;;;;;;5043625;28;20380;-75
2023/10/10 14:40:47;;;;;;;78.10;38.70;;;23.60;1.00;;;;;;5042834;28;20025;-75
2023/10/10 14:43:13;;;;;;;74.35;39.78;;;23.60;1.00;;;;;;5042356;28;20037;-75
2023/10/10 14:45:43;;;;;;;75.03;37.85;;;23.60;1.00;;;;;;5045283;28;20025;-75
2023/10/10 14:48:18;;;;;;;68.95;37.95;;;23.60;1.00;;;;;;5041329;28;20030;-75
2023/10/10 14:50:45;;;;;;;66.60;38.13;;;23.60;1.00;;;;;;5042005;28;20022;-75
2023/10/10 14:53:10;;;;;;;63.85;37.40;;;23.60;1.00;;;;;;5044933;28;20056;-76
2023/10/10 14:55:44;;;;;;;66.50;39.47;;;23.60;1.00;;;;;;5036173;28;20057;-75
2023/10/10 14:58:13;;;;;;;72.82;38.58;;;23.60;1.00;;;;;;5043168;28;20045;-75
2023/10/10 15:00:47;;;;;;;80.03;39.75;;;23.60;1.00;;;;;;5040843;28;20464;-75
2023/10/10 15:03:13;;;;;;;69.95;39.72;;;23.60;1.00;;;;;;5041196;28;20037;-75
2023/10/10 15:05:51;;;;;;;70.10;39.33;;;23.50;1.00;;;;;;5042728;28;20022;-75
2023/10/10 15:08:22;;;;;;;70.03;39.50;;;23.50;1.00;;;;;;5041157;28;20029;-75
2023/10/10 15:10:53;;;;;;;72.43;37.90;;;23.50;1.00;;;;;;5043490;28;20541;-75
2023/10/10 15:13:19;;;;;;;60.75;33.90;;;23.50;1.00;;;;;;5043526;28;20414;-75
2023/10/10 15:15:45;;;;;;;61.20;34.10;;;23.50;1.00;;;;;;5039969;28;20021;-75
2023/10/10 15:18:23;;;;;;;67.25;36.28;;;23.50;1.00;;;;;;5041143;28;20484;-75
2023/10/10 15:20:49;;;;;;;67.25;34.33;;;23.40;1.00;;;;;;5040785;28;20021;-75
2023/10/10 15:23:21;;;;;;;58.55;32.72;;;23.40;1.00;;;;;;5043671;28;20364;-75
2023/10/10 15:25:55;;;;;;;57.33;30.15;;;23.40;1.00;;;;;;5036956;28;20577;-75
2023/10/10 15:28:23;;;;;;;49.38;28.55;;;23.40;1.00;;;;;;5041591;28;20025;-75
2023/10/10 15:30:49;;;;;;;58.40;31.75;;;23.40;1.00;;;;;;5041329;28;20029;-75
2023/10/10 15:33:18;;;;;;;49.45;30.63;;;23.40;1.00;;;;;;5046396;28;20021;-75
2023/10/10 15:35:49;;;;;;;59.03;32.50;;;23.40;1.00;;;;;;5041253;28;20506;-75
2023/10/10 15:38:19;;;;;;;57.83;32.83;;;23.40;1.00;;;;;;5040782;28;20482;-75
2023/10/10 15:40:46;;;;;;;55.72;31.88;;;23.30;1.00;;;;;;5041844;28;20017;-75
2023/10/10 15:43:12;;;;;;;66.35;32.85;;;23.30;1.00;;;;;;5035876;28;20030;-76
2023/10/10 15:45:42;;;;;;;70.18;32.58;;;23.30;1.00;;;;;;5043340;28;20024;-75
2023/10/10 15:48:42;;;;;;;64.80;33.10;;;23.20;1.00;;;;;;5041251;28;20379;-75
2023/10/10 15:51:01;;;;;;;57.10;31.65;;;23.20;1.00;;;;;;5041693;28;20080;-75
2023/10/10 15:53:26;;;;;;;59.83;32.47;;;23.10;1.00;;;;;;5039635;28;20053;-75